Time;durP1;ratioP1;P1;durP2;ratioP2;P2;SDS_P1;SDS_P2;PMS_P1;PMS_P2;Temp;Humidity;BMP_temperature;BMP_pressure;BME280_temperature;BME280_humidity;BME280_pressure;Samples;Min_cycle;Max_cycle;Signal;HPM_P1;HPM_P2
2023/06/14 00:01:48;;;;;;;8.23;2.15;;;26.90;99.90;;;;;;4953896;28;20020;-52
2023/06/14 00:04:17;;;;;;;3.75;1.90;;;26.90;99.90;;;;;;4953244;28;20375;-53
2023/06/14 00:06:48;;;;;;;4.20;1.58;;;26.90;99.90;;;;;;4953266;28;20506;-51
2023/06/14 00:09:14;;;;;;;4.80;2.22;;;26.90;99.90;;;;;;4960894;28;20031;-54
2023/06/14 00:11:41;;;;;;;3.97;1.83;;;26.90;99.90;;;;;;4952771;28;20145;-53
2023/06/14 00:14:07;;;;;;;3.83;1.70;;;26.90;99.90;;;;;;4953223;28;20038;-54
2023/06/14 00:16:34;;;;;;;5.18;2.20;;;26.90;99.90;;;;;;4953088;28;20070;-52
2023/06/14 00:19:04;;;;;;;4.72;1.50;;;26.90;99.90;;;;;;4950484;29;20032;-54
2023/06/14 00:21:30;;;;;;;5.10;2.03;;;26.90;99.90;;;;;;4953317;28;20118;-54
2023/06/14 00:23:59;;;;;;;5.28;2.28;;;26.90;99.90;;;;;;4950624;29;20082;-54
2023/06/14 00:26:26;;;;;;;5.03;1.58;;;26.90;99.90;;;;;;4944981;29;20034;-55
2023/06/14 00:28:52;;;;;;;6.83;1.67;;;26.90;99.90;;;;;;4940661;29;20086;-55
2023/06/14 00:31:18;;;;;;;4.35;1.75;;;26.90;99.90;;;;;;4949575;29;20039;-55
2023/06/14 00:33:44;;;;;;;3.05;1.20;;;26.90;99.90;;;;;;4947280;29;20026;-54
2023/06/14 00:36:09;;;;;;;2.65;1.42;;;26.90;99.90;;;;;;4951952;29;20035;-55
2023/06/14 00:38:35;;;;;;;5.03;2.22;;;26.90;99.90;;;;;;4955811;29;20023;-54
2023/06/14 00:41:01;;;;;;;2.83;1.60;;;26.90;99.90;;;;;;4955851;29;20078;-54
2023/06/14 00:43:27;;;;;;;5.15;1.80;;;26.90;99.90;;;;;;4955758;29;20102;-55
2023/06/14 00:45:53;;;;;;;3.92;1.63;;;26.90;99.90;;;;;;4955450;29;20030;-55
2023/06/14 00:48:19;;;;;;;2.75;1.90;;;26.90;99.90;;;;;;4955944;29;20035;-55
2023/06/14 00:50:45;;;;;;;7.90;2.10;;;26.90;99.90;;;;;;4955404;29;20498;-52
2023/06/14 00:53:12;;;;;;;5.07;2.10;;;26.90;99.90;;;;;;4955719;29;20360;-53
2023/06/14 00:55:38;;;;;;;4.43;1.58;;;26.90;99.90;;;;;;4938183;29;20107;-54
2023/06/14 00:58:04;;;;;;;5.55;1.90;;;26.90;99.90;;;;;;4938455;29;20110;-54
2023/06/14 01:00:30;;;;;;;4.60;1.65;;;26.80;99.90;;;;;;4967117;23;20003;-50
2023/06/14 01:02:56;;;;;;;5.90;2.45;;;26.90;99.90;;;;;;4951154;29;20062;-51
2023/06/14 01:05:23;;;;;;;4.30;2.17;;;26.80;99.90;;;;;;4936221;29;20383;-53
2023/06/14 01:08:18;;;;;;;7.32;1.95;;;26.90;99.90;;;;;;4936337;29;20062;-51
2023/06/14 01:10:53;;;;;;;3.53;1.73;;;26.90;99.90;;;;;;4935105;29;20500;-52
2023/06/14 01:13:23;;;;;;;4.72;2.40;;;26.90;99.90;;;;;;4936067;29;20038;-52
2023/06/14 01:15:50;;;;;;;4.43;1.48;;;26.80;99.90;;;;;;4935905;29;20032;-52
2023/06/14 01:18:17;;;;;;;3.83;1.65;;;26.80;99.90;;;;;;4935481;29;20407;-52
2023/06/14 01:20:50;;;;;;;5.50;1.70;;;26.90;99.90;;;;;;4935278;29;20103;-52
2023/06/14 01:23:20;;;;;;;7.10;2.45;;;26.90;99.90;;;;;;4935993;29;20027;-53
2023/06/14 01:25:46;;;;;;;4.13;1.67;;;26.80;99.90;;;;;;4935474;29;20483;-53
2023/06/14 01:28:16;;;;;;;4.93;1.77;;;26.80;99.90;;;;;;4935738;29;20035;-53
2023/06/14 01:30:47;;;;;;;6.63;2.08;;;26.80;99.90;;;;;;4935498;29;20683;-53
2023/06/14 01:33:19;;;;;;;2.92;1.70;;;26.80;99.90;;;;;;4935698;29;20031;-53
2023/06/14 01:35:50;;;;;;;4.13;2.00;;;26.80;99.90;;;;;;4935588;29;20032;-53
2023/06/14 01:38:22;;;;;;;4.03;1.65;;;26.80;99.90;;;;;;4934853;29;20368;-53
2023/06/14 01:40:48;;;;;;;4.63;1.88;;;26.80;99.90;;;;;;4935576;29;20035;-53
2023/06/14 01:43:15;;;;;;;7.05;2.13;;;26.80;99.90;;;;;;4935717;29;20507;-53
2023/06/14 01:45:47;;;;;;;4.60;1.80;;;26.80;99.90;;;;;;4945579;29;20047;-53
2023/06/14 01:48:13;;;;;;;6.85;2.40;;;26.80;99.90;;;;;;4949664;29;20036;-53
2023/06/14 01:50:39;;;;;;;4.18;2.00;;;26.80;99.90;;;;;;4940728;29;20051;-53
2023/06/14 01:53:08;;;;;;;4.70;1.70;;;26.80;99.90;;;;;;4942611;29;20350;-53
2023/06/14 01:55:37;;;;;;;4.75;1.58;;;26.70;99.90;;;;;;4935636;29;20106;-53
2023/06/14 01:58:03;;;;;;;4.93;2.00;;;26.70;99.90;;;;;;4939495;29;20100;-53
2023/06/14 02:00:29;;;;;;;6.10;1.90;;;26.70;99.90;;;;;;4944265;29;20039;-53
2023/06/14 02:02:55;;;;;;;3.42;1.67;;;26.70;99.90;;;;;;4935106;29;20024;-53
2023/06/14 02:05:21;;;;;;;3.47;1.60;;;26.70;99.90;;;;;;4935332;29;20126;-52
2023/06/14 02:07:47;;;;;;;2.75;1.55;;;26.70;99.90;;;;;;4934951;29;20032;-52
2023/06/14 02:10:15;;;;;;;4.55;1.70;;;26.70;99.90;;;;;;4935211;29;20132;-52
2023/06/14 02:12:41;;;;;;;3.53;1.33;;;26.70;99.90;;;;;;4935144;29;20106;-53
2023/06/14 02:15:07;;;;;;;6.57;1.92;;;26.70;99.90;;;;;;4918035;29;20059;-53
2023/06/14 02:17:34;;;;;;;3.97;1.85;;;26.70;99.90;;;;;;4935154;29;20094;-52
2023/06/14 02:20:00;;;;;;;3.25;1.60;;;26.70;99.90;;;;;;4934459;29;20099;-52
2023/06/14 02:22:26;;;;;;;3.42;1.77;;;26.70;99.90;;;;;;4933327;29;20027;-53
2023/06/14 02:24:52;;;;;;;3.47;1.58;;;26.70;99.90;;;;;;4935053;29;20020;-53
2023/06/14 02:27:18;;;;;;;4.35;1.30;;;26.70;99.90;;;;;;4935121;29;20032;-52
2023/06/14 02:29:44;;;;;;;3.70;1.58;;;26.70;99.90;;;;;;4932893;29;20098;-54
2023/06/14 02:32:10;;;;;;;2.97;1.63;;;26.70;99.90;;;;;;4934332;29;20023;-53
2023/06/14 02:34:36;;;;;;;7.97;1.55;;;26.60;99.90;;;;;;4933758;29;20031;-53
2023/06/14 02:37:05;;;;;;;5.30;1.52;;;26.60;99.90;;;;;;4935221;29;20420;-54
2023/06/14 02:39:31;;;;;;;2.72;1.48;;;26.60;99.90;;;;;;4934186;29;20389;-53
2023/06/14 02:41:56;;;;;;;4.95;1.80;;;26.60;99.90;;;;;;4935011;29;20028;-53
2023/06/14 02:44:29;;;;;;;4.38;2.03;;;26.60;99.90;;;;;;4934982;29;20098;-53
2023/06/14 02:46:55;;;;;;;3.45;1.63;;;26.60;99.90;;;;;;4934985;29;20034;-53
2023/06/14 02:49:22;;;;;;;6.68;2.03;;;26.60;99.90;;;;;;4934966;29;20032;-53
2023/06/14 02:51:48;;;;;;;2.17;1.35;;;26.60;99.90;;;;;;4933759;29;20060;-53
2023/06/14 02:54:14;;;;;;;2.97;1.50;;;26.60;99.90;;;;;;4934986;29;20055;-53
2023/06/14 02:56:40;;;;;;;4.88;2.05;;;26.60;99.90;;;;;;4934904;29;20543;-53
2023/06/14 02:59:07;;;;;;;6.10;1.70;;;26.60;99.90;;;;;;4934955;29;20107;-53
2023/06/14 03:01:39;;;;;;;7.63;2.20;;;26.60;99.90;;;;;;4935400;29;20488;-53
2023/06/14 03:04:04;;;;;;;4.25;1.85;;;26.50;99.90;;;;;;4933824;29;20437;-54
2023/06/14 03:06:30;;;;;;;3.92;2.00;;;26.60;99.90;;;;;;4934986;29;20024;-53
2023/06/14 03:09:00;;;;;;;5.97;1.75;;;26.50;99.90;;;;;;4934798;29;20039;-53
2023/06/14 03:11:27;;;;;;;3.92;1.85;;;26.60;99.90;;;;;;4934563;29;20071;-53
2023/06/14 03:13:53;;;;;;;4.50;2.17;;;26.60;99.90;;;;;;4934750;29;20031;-53
2023/06/14 03:16:21;;;;;;;3.20;2.17;;;26.60;99.90;;;;;;4934613;29;20063;-54
2023/06/14 03:18:52;;;;;;;;;;;26.50;99.90;;;;;;4935272;29;20027;-54
2023/06/14 03:21:21;;;;;;;3.08;1.77;;;26.50;99.90;;;;;;4934663;29;19911;-54
2023/06/14 03:23:48;;;;;;;3.72;2.25;;;26.50;99.90;;;;;;4934540;29;20019;-55
2023/06/14 03:26:17;;;;;;;4.97;2.43;;;26.50;99.90;;;;;;4934738;29;20119;-54
2023/06/14 03:28:45;;;;;;;4.28;1.40;;;26.50;99.90;;;;;;4934711;29;20356;-55
2023/06/14 03:31:11;;;;;;;3.67;2.28;;;26.50;99.90;;;;;;4934676;29;20042;-55
2023/06/14 03:33:36;;;;;;;4.93;2.22;;;26.50;99.90;;;;;;4934627;29;20114;-55
2023/06/14 03:36:03;;;;;;;4.65;1.85;;;26.50;99.90;;;;;;4934855;29;20084;-55
2023/06/14 03:38:29;;;;;;;5.15;1.92;;;26.50;99.90;;;;;;4934422;29;20034;-55
2023/06/14 03:40:55;;;;;;;4.93;1.85;;;26.50;99.90;;;;;;4936964;29;20031;-54
2023/06/14 03:43:20;;;;;;;2.67;1.85;;;26.50;99.90;;;;;;4937025;29;20384;-54
2023/06/14 03:45:46;;;;;;;3.55;1.90;;;26.50;99.90;;;;;;4937942;29;20020;-55
2023/06/14 03:48:12;;;;;;;3.25;1.88;;;26.50;99.90;;;;;;4939622;29;20043;-54
2023/06/14 03:50:38;;;;;;;3.47;1.63;;;26.50;99.90;;;;;;4955440;29;20035;-54
2023/06/14 03:53:07;;;;;;;3.20;1.65;;;26.50;99.90;;;;;;4957075;29;20025;-53
2023/06/14 03:55:33;;;;;;;3.10;1.88;;;26.50;99.90;;;;;;4957413;29;20027;-54
2023/06/14 03:57:59;;;;;;;4.90;1.80;;;26.40;99.90;;;;;;4956811;29;20054;-54
2023/06/14 04:00:25;;;;;;;6.28;1.73;;;26.50;99.90;;;;;;4957104;29;20038;-53
2023/06/14 04:02:50;;;;;;;6.78;1.70;;;26.50;99.90;;;;;;4956651;29;20035;-53
2023/06/14 04:05:19;;;;;;;4.85;1.83;;;26.50;99.90;;;;;;4955394;29;20110;-53
2023/06/14 04:07:45;;;;;;;4.15;1.60;;;26.50;99.90;;;;;;4956590;29;20019;-54
2023/06/14 04:10:13;;;;;;;4.17;2.00;;;26.40;99.90;;;;;;4956668;29;20031;-53
2023/06/14 04:12:39;;;;;;;5.65;1.67;;;26.40;99.90;;;;;;4956545;29;20269;-53
2023/06/14 04:15:07;;;;;;;7.35;1.67;;;26.40;99.90;;;;;;4956270;29;20034;-53
2023/06/14 04:17:33;;;;;;;3.63;1.80;;;26.40;99.90;;;;;;4956792;29;20027;-52
2023/06/14 04:20:00;;;;;;;7.22;1.73;;;26.40;99.90;;;;;;4956502;29;20024;-51
2023/06/14 04:22:30;;;;;;;5.93;1.85;;;26.40;99.90;;;;;;4956335;29;20023;-51
2023/06/14 04:24:56;;;;;;;3.70;1.88;;;26.50;99.90;;;;;;4956418;29;20027;-52
2023/06/14 04:27:26;;;;;;;3.70;1.67;;;26.40;99.90;;;;;;4956471;29;20049;-52
2023/06/14 04:29:56;;;;;;;4.80;1.95;;;26.40;99.90;;;;;;4956225;29;20038;-52
2023/06/14 04:32:33;;;;;;;5.63;1.63;;;26.40;99.90;;;;;;4956207;29;20027;-52
2023/06/14 04:35:01;;;;;;;10.70;1.50;;;26.40;99.90;;;;;;4956221;29;20178;-52
2023/06/14 04:37:29;;;;;;;6.97;1.88;;;26.40;99.90;;;;;;4956059;29;20028;-52
2023/06/14 04:39:57;;;;;;;3.47;1.30;;;26.40;99.90;;;;;;4956080;28;20019;-52
2023/06/14 04:42:30;;;;;;;5.38;2.00;;;26.40;99.90;;;;;;4956076;29;20406;-52
2023/06/14 04:44:56;;;;;;;6.72;1.48;;;26.40;99.90;;;;;;4955892;29;20024;-53
2023/06/14 04:47:24;;;;;;;8.20;1.83;;;26.40;99.90;;;;;;4956008;29;20086;-54
2023/06/14 04:49:53;;;;;;;5.63;2.13;;;26.40;99.90;;;;;;4955981;29;20042;-53
2023/06/14 04:52:20;;;;;;;4.18;1.88;;;26.40;99.90;;;;;;4941865;29;20038;-52
2023/06/14 04:54:47;;;;;;;3.53;1.80;;;26.40;99.90;;;;;;4951313;29;20078;-52
2023/06/14 04:57:14;;;;;;;3.47;1.17;;;26.40;99.90;;;;;;4942324;29;20062;-53
2023/06/14 04:59:40;;;;;;;3.00;1.52;;;26.30;99.90;;;;;;4936553;29;20020;-53
2023/06/14 05:02:06;;;;;;;5.13;1.52;;;26.40;99.90;;;;;;4936565;29;20115;-53
2023/06/14 05:04:32;;;;;;;2.75;1.45;;;26.40;99.90;;;;;;4936328;29;20047;-53
2023/06/14 05:06:58;;;;;;;5.55;1.42;;;26.30;99.90;;;;;;4936161;29;20079;-53
2023/06/14 05:09:24;;;;;;;3.88;1.60;;;26.30;99.90;;;;;;4936015;29;20024;-52
2023/06/14 05:11:50;;;;;;;2.75;1.50;;;26.30;99.90;;;;;;4936337;29;20400;-53
2023/06/14 05:14:17;;;;;;;3.28;1.33;;;26.40;99.90;;;;;;4935924;29;20028;-52
2023/06/14 05:16:43;;;;;;;5.65;1.73;;;26.30;99.90;;;;;;4936166;29;20111;-53
2023/06/14 05:19:10;;;;;;;3.35;1.73;;;26.30;99.90;;;;;;4949117;29;20130;-52
2023/06/14 05:21:37;;;;;;;9.27;1.23;;;26.30;99.90;;;;;;4935960;29;20027;-53
2023/06/14 05:24:03;;;;;;;5.35;1.85;;;26.30;99.90;;;;;;4947622;29;20136;-53
2023/06/14 05:26:29;;;;;;;2.90;1.42;;;26.30;99.90;;;;;;4953623;29;20023;-52
2023/06/14 05:28:56;;;;;;;4.32;1.73;;;26.30;99.90;;;;;;4946997;29;20121;-53
2023/06/14 05:31:23;;;;;;;3.90;1.40;;;26.30;99.90;;;;;;4947060;29;20369;-53
2023/06/14 05:33:51;;;;;;;3.95;1.40;;;26.30;99.90;;;;;;4934654;29;20262;-53
2023/06/14 05:36:16;;;;;;;4.20;1.52;;;26.30;99.90;;;;;;4935696;29;20377;-52
2023/06/14 05:38:42;;;;;;;3.25;1.48;;;26.30;99.90;;;;;;4935806;29;20019;-52
2023/06/14 05:41:08;;;;;;;3.85;1.35;;;26.30;99.90;;;;;;4935679;29;20481;-52
2023/06/14 05:43:33;;;;;;;3.60;1.40;;;26.30;99.90;;;;;;4935629;29;20424;-52
2023/06/14 05:45:59;;;;;;;3.65;1.85;;;26.30;99.90;;;;;;4947365;29;20035;-52
2023/06/14 05:48:25;;;;;;;4.18;1.67;;;26.30;99.90;;;;;;4938623;29;20019;-52
2023/06/14 05:50:51;;;;;;;5.53;1.73;;;26.30;99.90;;;;;;4934061;29;20042;-53
2023/06/14 05:53:17;;;;;;;6.53;1.67;;;26.30;99.90;;;;;;4935305;29;20024;-52
2023/06/14 05:55:43;;;;;;;3.47;1.58;;;26.30;99.90;;;;;;4934251;29;20032;-51
2023/06/14 05:58:08;;;;;;;4.10;1.77;;;26.30;99.90;;;;;;4936829;29;20080;-51
2023/06/14 06:00:35;;;;;;;3.10;1.25;;;26.40;99.90;;;;;;4954210;29;20538;-52
2023/06/14 06:03:01;;;;;;;4.38;1.55;;;26.30;99.90;;;;;;4954150;28;20027;-52
2023/06/14 06:05:26;;;;;;;4.53;1.77;;;26.30;99.90;;;;;;4951325;29;20106;-52
2023/06/14 06:07:52;;;;;;;7.78;2.00;;;26.30;99.90;;;;;;4935481;29;20055;-53
2023/06/14 06:10:18;;;;;;;4.75;1.73;;;26.40;99.90;;;;;;4937358;29;20052;-59
2023/06/14 06:12:44;;;;;;;5.40;1.98;;;26.30;99.90;;;;;;4946741;29;20024;-51
2023/06/14 06:15:13;;;;;;;5.65;1.67;;;26.30;99.90;;;;;;4947807;29;20031;-52
2023/06/14 06:17:39;;;;;;;3.15;1.30;;;26.30;99.90;;;;;;4934986;29;20042;-52
2023/06/14 06:20:08;;;;;;;3.20;1.50;;;26.30;99.90;;;;;;4935040;29;20039;-52
2023/06/14 06:22:34;;;;;;;3.97;1.80;;;26.30;99.90;;;;;;4934943;29;20020;-51
2023/06/14 06:25:00;;;;;;;5.95;2.10;;;26.40;99.90;;;;;;4934921;29;20556;-52
2023/06/14 06:27:26;;;;;;;7.35;1.70;;;26.40;99.90;;;;;;4947407;29;20036;-52
2023/06/14 06:29:52;;;;;;;4.68;1.60;;;26.40;99.90;;;;;;4946779;29;20034;-52
2023/06/14 06:32:17;;;;;;;4.95;1.52;;;26.40;99.90;;;;;;4949985;28;20471;-52
2023/06/14 06:34:43;;;;;;;5.70;1.88;;;26.30;99.90;;;;;;4935126;29;20020;-52
2023/06/14 06:37:09;;;;;;;4.28;1.98;;;26.40;99.90;;;;;;4951323;29;20491;-52
2023/06/14 06:39:35;;;;;;;5.43;1.88;;;26.30;99.90;;;;;;4944929;29;20019;-52
2023/06/14 06:42:01;;;;;;;5.75;2.47;;;26.40;99.90;;;;;;4934717;29;20495;-52
2023/06/14 06:44:27;;;;;;;6.90;1.73;;;26.40;99.90;;;;;;4934736;29;20022;-52
2023/06/14 06:46:52;;;;;;;6.13;2.22;;;26.40;99.90;;;;;;4947504;29;20504;-52
2023/06/14 06:49:18;;;;;;;6.97;1.60;;;26.40;99.90;;;;;;4934740;29;20035;-52
2023/06/14 06:52:00;;;;;;;6.50;1.58;;;26.40;99.90;;;;;;4935020;29;20032;-51
2023/06/14 06:54:26;;;;;;;6.18;1.35;;;26.40;99.90;;;;;;4933230;29;20020;-52
2023/06/14 06:56:52;;;;;;;6.03;1.45;;;26.40;99.90;;;;;;4934715;29;20032;-52
2023/06/14 06:59:18;;;;;;;4.43;1.35;;;26.40;99.90;;;;;;4941472;29;20090;-52
2023/06/14 07:01:43;;;;;;;4.95;1.67;;;26.40;99.90;;;;;;4953552;29;20122;-52
2023/06/14 07:04:09;;;;;;;5.82;1.50;;;26.40;99.90;;;;;;4934551;29;20428;-53
2023/06/14 07:06:35;;;;;;;2.92;1.55;;;26.40;99.90;;;;;;4946350;29;20106;-53
2023/06/14 07:09:01;;;;;;;4.63;2.08;;;26.40;99.90;;;;;;4940838;28;20471;-52
2023/06/14 07:11:27;;;;;;;2.63;1.52;;;26.40;99.90;;;;;;4941813;29;20036;-53
2023/06/14 07:13:53;;;;;;;5.57;1.55;;;26.40;99.90;;;;;;4951213;28;20019;-52
2023/06/14 07:16:19;;;;;;;4.63;1.60;;;26.40;99.90;;;;;;4956911;29;20033;-52
2023/06/14 07:18:44;;;;;;;4.28;1.52;;;26.50;99.90;;;;;;4939548;29;20099;-52
2023/06/14 07:21:10;;;;;;;2.83;1.75;;;26.50;99.90;;;;;;4938115;29;20028;-52
2023/06/14 07:23:36;;;;;;;5.05;1.83;;;26.40;99.90;;;;;;4936821;29;20071;-52
2023/06/14 07:26:02;;;;;;;4.72;1.50;;;26.50;99.90;;;;;;4938241;29;20031;-52
2023/06/14 07:28:28;;;;;;;4.43;1.52;;;26.50;99.90;;;;;;4938234;29;20028;-51
2023/06/14 07:30:54;;;;;;;3.05;1.40;;;26.50;99.90;;;;;;4937801;29;20043;-53
2023/06/14 07:33:20;;;;;;;5.63;1.70;;;26.50;99.90;;;;;;4937551;29;20030;-53
2023/06/14 07:35:47;;;;;;;4.35;1.60;;;26.50;99.90;;;;;;4937112;29;20036;-52
2023/06/14 07:38:13;;;;;;;4.70;1.83;;;26.50;99.90;;;;;;4937651;29;20024;-52
2023/06/14 07:40:39;;;;;;;12.15;1.98;;;26.50;99.90;;;;;;4937783;29;20074;-51
2023/06/14 07:43:04;;;;;;;5.00;1.80;;;26.50;99.90;;;;;;4950463;29;20055;-52
2023/06/14 07:45:31;;;;;;;4.53;1.70;;;26.50;99.90;;;;;;4945857;29;20019;-53
2023/06/14 07:47:56;;;;;;;3.47;1.38;;;26.50;99.90;;;;;;4944836;29;20028;-53
2023/06/14 07:50:23;;;;;;;6.85;1.55;;;26.50;99.90;;;;;;4941882;29;20097;-52
2023/06/14 07:52:48;;;;;;;5.07;1.98;;;26.50;99.90;;;;;;4956786;29;20027;-53
2023/06/14 07:55:15;;;;;;;3.40;1.50;;;26.50;99.90;;;;;;4955678;29;20038;-53
2023/06/14 07:57:41;;;;;;;6.15;2.20;;;26.60;99.90;;;;;;4937417;29;20032;-52
2023/06/14 08:00:07;;;;;;;3.33;1.83;;;26.60;99.90;;;;;;4936117;29;20389;-53
2023/06/14 08:02:32;;;;;;;7.90;2.03;;;26.50;99.90;;;;;;4953688;29;20042;-52
2023/06/14 08:04:58;;;;;;;4.15;2.05;;;26.60;99.90;;;;;;4946308;29;20028;-52
2023/06/14 08:07:24;;;;;;;3.90;1.80;;;26.60;99.90;;;;;;4939293;29;20027;-54
2023/06/14 08:09:50;;;;;;;5.93;2.28;;;26.60;99.90;;;;;;4947664;29;20032;-52
2023/06/14 08:12:16;;;;;;;4.95;1.60;;;26.60;99.90;;;;;;4937289;29;20042;-53
2023/06/14 08:14:43;;;;;;;5.45;1.92;;;26.60;99.90;;;;;;4936898;29;20047;-53
2023/06/14 08:17:08;;;;;;;8.75;2.05;;;26.60;99.90;;;;;;4936572;29;20433;-54
2023/06/14 08:19:34;;;;;;;5.97;2.22;;;26.60;99.90;;;;;;4938433;29;20036;-54
2023/06/14 08:22:00;;;;;;;4.78;2.25;;;26.60;99.90;;;;;;4956045;29;20029;-54
2023/06/14 08:24:29;;;;;;;4.55;2.28;;;26.70;99.90;;;;;;4940891;29;20024;-53
2023/06/14 08:26:56;;;;;;;5.88;2.40;;;26.70;99.90;;;;;;4935839;29;20467;-53
2023/06/14 08:29:22;;;;;;;4.10;1.92;;;26.70;99.90;;;;;;4937883;29;20345;-53
2023/06/14 08:31:48;;;;;;;4.50;2.47;;;26.70;99.90;;;;;;4935652;29;20040;-54
2023/06/14 08:34:13;;;;;;;7.93;2.58;;;26.70;99.90;;;;;;4936739;29;20030;-53
2023/06/14 08:36:39;;;;;;;5.40;2.45;;;26.70;99.90;;;;;;4936650;29;20031;-53
2023/06/14 08:39:05;;;;;;;5.78;2.97;;;26.80;99.90;;;;;;4936912;29;20024;-54
2023/06/14 08:41:32;;;;;;;4.70;2.90;;;26.80;99.90;;;;;;4936646;29;20024;-53
2023/06/14 08:43:58;;;;;;;6.00;3.17;;;26.80;99.90;;;;;;4936591;29;20027;-54
2023/06/14 08:46:27;;;;;;;10.00;3.03;;;26.80;99.90;;;;;;4936513;29;20469;-54
2023/06/14 08:48:58;;;;;;;8.38;3.97;;;26.80;99.90;;;;;;4936300;29;20023;-55
2023/06/14 08:51:26;;;;;;;7.05;2.97;;;26.90;99.90;;;;;;4936383;29;20599;-51
2023/06/14 08:53:57;;;;;;;5.95;2.78;;;26.90;99.90;;;;;;4936573;29;20106;-53
2023/06/14 08:56:27;;;;;;;9.05;2.80;;;26.90;99.90;;;;;;4936580;29;20052;-52
2023/06/14 08:58:54;;;;;;;6.53;3.75;;;26.90;99.90;;;;;;4936166;29;20032;-52
2023/06/14 09:01:21;;;;;;;6.40;3.55;;;27.00;99.90;;;;;;4936196;29;20389;-53
2023/06/14 09:03:48;;;;;;;6.57;3.55;;;27.00;99.90;;;;;;4944769;29;20080;-52
2023/06/14 09:06:15;;;;;;;11.48;3.17;;;27.00;99.90;;;;;;4948050;29;20035;-51
2023/06/14 09:08:45;;;;;;;4.97;2.85;;;27.00;99.90;;;;;;4936236;29;20024;-51
2023/06/14 09:11:15;;;;;;;8.23;3.00;;;27.00;99.90;;;;;;4936190;29;20048;-52
2023/06/14 09:13:41;;;;;;;9.23;2.72;;;27.10;99.90;;;;;;4947384;29;20024;-51
2023/06/14 09:16:08;;;;;;;5.22;2.50;;;27.10;99.90;;;;;;4945965;29;20034;-52
2023/06/14 09:18:38;;;;;;;6.85;3.00;;;27.10;99.90;;;;;;4940101;29;20067;-51
2023/06/14 09:21:07;;;;;;;6.93;2.33;;;27.10;99.90;;;;;;4936008;29;20028;-51
2023/06/14 09:23:38;;;;;;;8.77;2.90;;;27.10;99.90;;;;;;4935899;29;20051;-51
2023/06/14 09:26:15;;;;;;;4.75;2.85;;;27.10;99.90;;;;;;4935830;29;20507;-51
2023/06/14 09:28:45;;;;;;;5.90;3.13;;;27.20;99.90;;;;;;4935875;29;20030;-51
2023/06/14 09:31:12;;;;;;;4.38;2.78;;;27.20;99.90;;;;;;4944850;29;20051;-51
2023/06/14 09:33:38;;;;;;;7.45;2.90;;;27.20;99.90;;;;;;4951986;28;20492;-51
2023/06/14 09:36:09;;;;;;;11.93;3.10;;;27.20;99.90;;;;;;4935530;29;20210;-51
2023/06/14 09:38:35;;;;;;;7.97;2.25;;;27.20;99.90;;;;;;4948131;28;20030;-51
2023/06/14 09:41:03;;;;;;;4.10;2.50;;;27.20;99.90;;;;;;4935488;29;20108;-51
2023/06/14 09:43:29;;;;;;;5.47;3.08;;;27.20;99.90;;;;;;4935509;29;20024;-51
2023/06/14 09:45:56;;;;;;;6.10;3.13;;;27.20;99.90;;;;;;4935542;29;20032;-52
2023/06/14 09:48:21;;;;;;;4.72;2.63;;;27.20;99.90;;;;;;4935859;29;20020;-52
2023/06/14 09:50:50;;;;;;;3.70;2.65;;;27.20;99.90;;;;;;4935314;29;20039;-52
2023/06/14 09:53:16;;;;;;;5.65;3.00;;;27.20;99.90;;;;;;4935302;29;20035;-51
2023/06/14 09:55:42;;;;;;;3.92;2.85;;;27.20;99.90;;;;;;4947942;29;20380;-51
2023/06/14 09:58:11;;;;;;;4.15;2.60;;;27.20;99.90;;;;;;4946463;29;20027;-51
2023/06/14 10:00:39;;;;;;;4.72;2.80;;;27.20;99.90;;;;;;4949072;29;20496;-51
2023/06/14 10:03:18;;;;;;;4.05;2.50;;;27.20;99.90;;;;;;4935360;29;20051;-51
2023/06/14 10:05:46;;;;;;;4.35;2.45;;;27.20;99.90;;;;;;4935372;29;20031;-51
2023/06/14 10:08:18;;;;;;;4.10;2.80;;;27.20;99.90;;;;;;4935130;29;20020;-51
2023/06/14 10:10:44;;;;;;;4.65;2.40;;;27.20;99.90;;;;;;4935125;29;20028;-51
2023/06/14 10:13:11;;;;;;;6.50;3.28;;;27.20;99.90;;;;;;4933813;29;20023;-51
2023/06/14 10:16:09;;;;;;;6.13;2.65;;;27.20;99.90;;;;;;4934972;29;20035;-51
2023/06/14 10:18:52;;;;;;;6.90;2.83;;;27.30;99.90;;;;;;4935105;29;20024;-51
2023/06/14 10:21:43;;;;;;;10.35;5.03;;;27.20;99.90;;;;;;4935046;29;20027;-51
2023/06/14 10:24:13;;;;;;;7.13;2.35;;;27.20;99.90;;;;;;4934936;29;20024;-51
2023/06/14 10:26:51;;;;;;;7.43;3.00;;;27.20;99.90;;;;;;4934992;29;20032;-51
2023/06/14 10:29:17;;;;;;;8.38;2.33;;;27.20;99.90;;;;;;4947493;29;20027;-51
2023/06/14 10:31:43;;;;;;;9.15;4.55;;;27.20;99.90;;;;;;4935039;29;20428;-52
2023/06/14 10:34:09;;;;;;;18.20;10.18;;;27.30;99.90;;;;;;4937799;29;20490;-52
2023/06/14 10:36:35;;;;;;;6.72;3.50;;;27.30;99.90;;;;;;4944633;29;20027;-53
2023/06/14 10:39:19;;;;;;;4.97;2.00;;;27.30;99.90;;;;;;4934790;29;20364;-50
2023/06/14 10:41:57;;;;;;;9.70;3.75;;;27.30;99.90;;;;;;4944070;29;20372;-50
2023/06/14 10:44:22;;;;;;;12.40;3.20;;;27.30;99.90;;;;;;4953648;28;20502;-52
2023/06/14 10:46:55;;;;;;;8.93;2.65;;;27.40;99.90;;;;;;4942060;29;20067;-52
2023/06/14 10:49:45;;;;;;;8.07;2.10;;;27.40;99.90;;;;;;4939783;29;20027;-53
2023/06/14 10:52:19;;;;;;;8.02;2.10;;;27.40;99.90;;;;;;4943048;29;20118;-52
2023/06/14 10:55:22;;;;;;;7.55;2.25;;;27.50;99.90;;;;;;4946382;29;20062;-54
2023/06/14 10:57:51;;;;;;;5.55;2.78;;;27.50;99.90;;;;;;4944334;29;20115;-54
2023/06/14 11:00:34;;;;;;;5.60;2.97;;;27.50;99.90;;;;;;4944848;29;20487;-54
2023/06/14 11:03:09;;;;;;;6.88;2.40;;;27.60;99.90;;;;;;4950165;29;20491;-53
2023/06/14 11:05:56;;;;;;;9.70;2.80;;;27.60;99.90;;;;;;4938412;29;20539;-52
2023/06/14 11:08:34;;;;;;;;;;;27.60;99.90;;;;;;4948176;29;20023;-53
2023/06/14 11:11:00;;;;;;;5.53;2.13;;;27.60;99.90;;;;;;4940167;29;20280;-53
2023/06/14 11:13:26;;;;;;;5.85;2.38;;;27.60;99.90;;;;;;4938126;29;20016;-52
2023/06/14 11:15:53;;;;;;;6.97;3.03;;;27.60;99.90;;;;;;4938908;29;20484;-53
2023/06/14 11:18:24;;;;;;;5.00;2.38;;;27.50;99.90;;;;;;4938258;29;20476;-53
2023/06/14 11:20:50;;;;;;;8.07;2.45;;;27.60;99.90;;;;;;4939283;29;20094;-52
2023/06/14 11:23:16;;;;;;;5.03;2.50;;;27.60;99.90;;;;;;4955743;29;20557;-53
2023/06/14 11:25:42;;;;;;;6.07;2.17;;;27.60;99.90;;;;;;4953343;29;20118;-52
2023/06/14 11:28:08;;;;;;;4.43;2.33;;;27.50;99.90;;;;;;4951467;29;20433;-51
2023/06/14 11:30:34;;;;;;;10.38;3.22;;;27.60;99.90;;;;;;4937931;29;20135;-51
2023/06/14 11:33:00;;;;;;;7.88;2.60;;;27.60;99.90;;;;;;4937821;29;20484;-51
2023/06/14 11:35:26;;;;;;;6.75;2.22;;;27.60;99.90;;;;;;4946242;29;20055;-52
2023/06/14 11:37:56;;;;;;;6.28;1.85;;;27.60;99.90;;;;;;4941261;29;20027;-52
2023/06/14 11:40:25;;;;;;;5.18;2.20;;;27.60;99.90;;;;;;4949855;29;20475;-51
2023/06/14 11:42:59;;;;;;;10.57;2.28;;;27.60;99.90;;;;;;4956957;29;20697;-50
2023/06/14 11:45:25;;;;;;;4.72;2.38;;;27.60;99.90;;;;;;4956815;29;20023;-52
2023/06/14 11:47:51;;;;;;;6.75;2.40;;;27.60;99.90;;;;;;4948617;29;20024;-52
2023/06/14 11:50:16;;;;;;;9.88;2.17;;;27.60;99.90;;;;;;4950152;29;20042;-53
2023/06/14 11:52:43;;;;;;;4.45;2.45;;;27.60;99.90;;;;;;4937636;29;20055;-52
2023/06/14 11:55:09;;;;;;;4.57;2.25;;;27.60;99.90;;;;;;4953776;29;20058;-52
2023/06/14 11:57:38;;;;;;;5.35;2.15;;;27.70;99.90;;;;;;4943657;29;20024;-52
2023/06/14 12:00:12;;;;;;;7.20;3.85;;;27.70;99.90;;;;;;4948329;29;20032;-52
2023/06/14 12:02:38;;;;;;;9.73;4.40;;;27.70;99.90;;;;;;4952421;29;20488;-52
2023/06/14 12:05:09;;;;;;;9.13;5.07;;;27.70;99.90;;;;;;4937544;29;20119;-53
2023/06/14 12:07:37;;;;;;;11.07;5.20;;;27.80;99.90;;;;;;4939470;29;20757;-54
2023/06/14 12:10:07;;;;;;;11.32;4.95;;;27.80;99.90;;;;;;4955883;29;20118;-52
2023/06/14 12:12:39;;;;;;;7.75;4.32;;;27.80;99.90;;;;;;4956518;29;20031;-52
2023/06/14 12:15:11;;;;;;;9.63;4.15;;;27.80;99.90;;;;;;4954899;29;20059;-51
2023/06/14 12:17:41;;;;;;;8.77;4.13;;;27.80;99.90;;;;;;4944475;29;20464;-54
2023/06/14 12:20:21;;;;;;;5.25;2.97;;;27.90;99.90;;;;;;4947470;29;20040;-53
2023/06/14 12:22:51;;;;;;;7.05;3.67;;;27.90;99.90;;;;;;4956223;29;20031;-53
2023/06/14 12:25:27;;;;;;;7.22;3.95;;;27.90;99.90;;;;;;4937590;29;20027;-53
2023/06/14 12:27:56;;;;;;;7.35;3.80;;;27.90;99.90;;;;;;4949563;29;20400;-53
2023/06/14 12:30:22;;;;;;;8.52;3.85;;;27.90;99.90;;;;;;4956124;29;20046;-54
2023/06/14 12:32:48;;;;;;;8.63;3.03;;;27.90;99.90;;;;;;4955228;29;20035;-53
2023/06/14 12:35:14;;;;;;;7.75;3.70;;;27.90;99.90;;;;;;4941634;29;20024;-52
2023/06/14 12:37:40;;;;;;;7.97;4.40;;;28.00;99.90;;;;;;4949826;29;20052;-53
2023/06/14 12:40:07;;;;;;;10.30;5.90;;;28.00;99.90;;;;;;4950392;29;20094;-54
2023/06/14 12:42:36;;;;;;;9.18;5.32;;;28.00;99.90;;;;;;4944978;28;20020;-53
2023/06/14 12:45:02;;;;;;;8.48;4.68;;;28.00;99.90;;;;;;4949232;29;20031;-54
2023/06/14 12:47:28;;;;;;;6.38;3.50;;;28.00;99.90;;;;;;4940592;29;20016;-54
2023/06/14 12:49:54;;;;;;;7.25;2.90;;;28.00;99.90;;;;;;4949068;29;20095;-54
2023/06/14 12:52:19;;;;;;;5.35;3.20;;;28.10;99.90;;;;;;4949352;29;20124;-55